Etusivu
METAR-TAF:

METAR-TAF

Lentoasemat :

Fond Du Lac County Airport

Fond du Lac, Wisconsin, Yhdysvallat

Leveyspiiri: 43-46-12N, Pituuspiiri: 088-29-11W, korkeus merenpinnasta: 246 m

Tämänhetkinen sää

Tämä raportti tehtiin 1 tunti ja 1 minuuttia sitten, kello 16.53 UTC
Tuuli 7 kn koillisesta, vaihdellen pohjoisen ja idän välillä
Lämpötila 21°C
Kosteus 56%
Ilmanpaine 1019 hPa
Näkyvyys: 16.1 km
selkeää

METAR: KFLD 261653Z AUTO 05007KT 360V080 10SM CLR 21/12 A3008 RMK AO2 SLP185 T02110117

Aika: 12:54 (17:54 UTC)


TAF: puuttuu

Säähavainnot ja -ennusteet yli 4000 lentoasemalta (METAR- ja TAF-raportit).

Käytössä olevat sääasemat on merkitty karttaan keltaisilla ja punaisilla pisteillä.

Aseta hiiri pisteen päälle nähdäksesi sääaseman nimen.

Klikkaa sitten nähdäksesi säähavainnot ja -ennusteet.

Kartan vaihtaminen: klikkaa mustalla rastilla varustettuja vihreitä pisteitä, niin voit zoomata sisään; viivalla varustettua vihreää pistettä, niin voit zoomata ulos tai vihreitä nuolia, niin pääset viereisille kartoille.


METAR-TAF: